sensor_id;sensor_type;location;lat;lon;timestamp;P1;durP1;ratioP1;P2;durP2;ratioP2
63046;SDS011;62025;39.238;9.126;2022-11-14T00:02:06;6.55;;;5.15;;
63046;SDS011;62025;39.238;9.126;2022-11-14T00:04:51;9.02;;;5.18;;
63046;SDS011;62025;39.238;9.126;2022-11-14T00:07:36;5.72;;;4.93;;
63046;SDS011;62025;39.238;9.126;2022-11-14T00:10:20;9.50;;;5.38;;
63046;SDS011;62025;39.238;9.126;2022-11-14T00:13:05;7.60;;;5.82;;
63046;SDS011;62025;39.238;9.126;2022-11-14T00:15:51;7.18;;;5.40;;
63046;SDS011;62025;39.238;9.126;2022-11-14T00:21:24;7.55;;;4.65;;
63046;SDS011;62025;39.238;9.126;2022-11-14T00:24:08;8.20;;;5.20;;
63046;SDS011;62025;39.238;9.126;2022-11-14T00:26:53;6.22;;;4.43;;
63046;SDS011;62025;39.238;9.126;2022-11-14T00:29:37;7.78;;;4.72;;
63046;SDS011;62025;39.238;9.126;2022-11-14T00:32:22;7.30;;;4.40;;
63046;SDS011;62025;39.238;9.126;2022-11-14T00:35:07;5.97;;;4.28;;
63046;SDS011;62025;39.238;9.126;2022-11-14T00:37:52;6.78;;;4.90;;
63046;SDS011;62025;39.238;9.126;2022-11-14T00:40:36;7.07;;;4.63;;
63046;SDS011;62025;39.238;9.126;2022-11-14T00:43:21;6.30;;;4.22;;
63046;SDS011;62025;39.238;9.126;2022-11-14T00:46:06;5.68;;;4.40;;
63046;SDS011;62025;39.238;9.126;2022-11-14T00:48:50;7.35;;;4.63;;
63046;SDS011;62025;39.238;9.126;2022-11-14T00:51:35;5.45;;;3.92;;
63046;SDS011;62025;39.238;9.126;2022-11-14T00:54:20;8.02;;;5.18;;
63046;SDS011;62025;39.238;9.126;2022-11-14T00:57:05;6.55;;;4.03;;
63046;SDS011;62025;39.238;9.126;2022-11-14T00:59:50;10.00;;;4.45;;
63046;SDS011;62025;39.238;9.126;2022-11-14T01:02:36;12.27;;;4.30;;
63046;SDS011;62025;39.238;9.126;2022-11-14T01:05:20;7.25;;;4.30;;
63046;SDS011;62025;39.238;9.126;2022-11-14T01:08:06;8.73;;;4.80;;
63046;SDS011;62025;39.238;9.126;2022-11-14T01:10:51;7.75;;;4.80;;
63046;SDS011;62025;39.238;9.126;2022-11-14T01:13:35;7.05;;;5.10;;
63046;SDS011;62025;39.238;9.126;2022-11-14T01:16:20;7.50;;;5.05;;
63046;SDS011;62025;39.238;9.126;2022-11-14T01:19:05;8.82;;;4.90;;
63046;SDS011;62025;39.238;9.126;2022-11-14T01:21:50;7.07;;;5.05;;
63046;SDS011;62025;39.238;9.126;2022-11-14T01:24:34;6.30;;;4.53;;
63046;SDS011;62025;39.238;9.126;2022-11-14T01:27:19;5.85;;;4.90;;
63046;SDS011;62025;39.238;9.126;2022-11-14T01:30:04;5.80;;;4.45;;
63046;SDS011;62025;39.238;9.126;2022-11-14T01:32:50;7.30;;;4.65;;
63046;SDS011;62025;39.238;9.126;2022-11-14T01:35:35;4.40;;;3.72;;
63046;SDS011;62025;39.238;9.126;2022-11-14T01:38:21;6.75;;;4.05;;
63046;SDS011;62025;39.238;9.126;2022-11-14T01:41:06;4.68;;;3.85;;
63046;SDS011;62025;39.238;9.126;2022-11-14T01:43:50;6.72;;;4.45;;
63046;SDS011;62025;39.238;9.126;2022-11-14T01:46:35;6.22;;;4.28;;
63046;SDS011;62025;39.238;9.126;2022-11-14T01:49:25;7.10;;;4.10;;
63046;SDS011;62025;39.238;9.126;2022-11-14T01:52:26;6.10;;;3.90;;
63046;SDS011;62025;39.238;9.126;2022-11-14T01:55:17;5.38;;;3.92;;
63046;SDS011;62025;39.238;9.126;2022-11-14T01:58:02;6.93;;;4.05;;
63046;SDS011;62025;39.238;9.126;2022-11-14T02:00:46;5.80;;;3.65;;
63046;SDS011;62025;39.238;9.126;2022-11-14T02:03:31;7.05;;;3.38;;
63046;SDS011;62025;39.238;9.126;2022-11-14T02:06:19;5.90;;;3.50;;
63046;SDS011;62025;39.238;9.126;2022-11-14T02:09:07;4.82;;;3.33;;
63046;SDS011;62025;39.238;9.126;2022-11-14T02:11:52;4.20;;;3.30;;
63046;SDS011;62025;39.238;9.126;2022-11-14T02:14:38;5.35;;;3.47;;
63046;SDS011;62025;39.238;9.126;2022-11-14T02:17:25;5.55;;;3.10;;
63046;SDS011;62025;39.238;9.126;2022-11-14T02:22:55;5.15;;;3.03;;
63046;SDS011;62025;39.238;9.126;2022-11-14T02:25:39;3.22;;;2.58;;
63046;SDS011;62025;39.238;9.126;2022-11-14T02:28:24;3.55;;;2.85;;
63046;SDS011;62025;39.238;9.126;2022-11-14T02:31:10;5.13;;;2.88;;
63046;SDS011;62025;39.238;9.126;2022-11-14T02:33:54;3.50;;;2.88;;
63046;SDS011;62025;39.238;9.126;2022-11-14T02:36:39;5.47;;;2.97;;
63046;SDS011;62025;39.238;9.126;2022-11-14T02:39:23;4.70;;;3.03;;
63046;SDS011;62025;39.238;9.126;2022-11-14T02:42:08;5.18;;;3.10;;
63046;SDS011;62025;39.238;9.126;2022-11-14T02:44:53;4.75;;;3.05;;
63046;SDS011;62025;39.238;9.126;2022-11-14T02:47:37;6.40;;;3.60;;
63046;SDS011;62025;39.238;9.126;2022-11-14T02:50:22;4.65;;;3.85;;
63046;SDS011;62025;39.238;9.126;2022-11-14T02:53:06;4.90;;;3.45;;
63046;SDS011;62025;39.238;9.126;2022-11-14T02:55:51;4.70;;;3.50;;
63046;SDS011;62025;39.238;9.126;2022-11-14T02:58:36;4.38;;;3.42;;
63046;SDS011;62025;39.238;9.126;2022-11-14T03:01:20;4.43;;;3.30;;
63046;SDS011;62025;39.238;9.126;2022-11-14T03:04:05;5.68;;;3.63;;
63046;SDS011;62025;39.238;9.126;2022-11-14T03:06:49;6.00;;;4.03;;
63046;SDS011;62025;39.238;9.126;2022-11-14T03:09:34;5.15;;;4.05;;
63046;SDS011;62025;39.238;9.126;2022-11-14T03:12:19;5.28;;;4.05;;
63046;SDS011;62025;39.238;9.126;2022-11-14T03:15:04;5.45;;;4.28;;
63046;SDS011;62025;39.238;9.126;2022-11-14T03:17:50;5.32;;;4.45;;
63046;SDS011;62025;39.238;9.126;2022-11-14T03:20:34;6.07;;;4.45;;
63046;SDS011;62025;39.238;9.126;2022-11-14T03:23:19;5.45;;;4.40;;
63046;SDS011;62025;39.238;9.126;2022-11-14T03:26:05;7.47;;;5.03;;
63046;SDS011;62025;39.238;9.126;2022-11-14T03:28:52;9.90;;;6.20;;
63046;SDS011;62025;39.238;9.126;2022-11-14T03:31:38;6.75;;;5.38;;
63046;SDS011;62025;39.238;9.126;2022-11-14T03:34:22;8.18;;;6.20;;
63046;SDS011;62025;39.238;9.126;2022-11-14T03:37:07;11.68;;;5.32;;
63046;SDS011;62025;39.238;9.126;2022-11-14T03:39:52;7.78;;;5.40;;
63046;SDS011;62025;39.238;9.126;2022-11-14T03:42:37;6.20;;;4.85;;
63046;SDS011;62025;39.238;9.126;2022-11-14T03:45:21;6.13;;;5.18;;
63046;SDS011;62025;39.238;9.126;2022-11-14T03:48:06;7.57;;;5.20;;
63046;SDS011;62025;39.238;9.126;2022-11-14T03:50:51;6.43;;;5.30;;
63046;SDS011;62025;39.238;9.126;2022-11-14T03:53:35;8.95;;;6.22;;
63046;SDS011;62025;39.238;9.126;2022-11-14T03:56:20;9.52;;;6.43;;
63046;SDS011;62025;39.238;9.126;2022-11-14T03:59:05;7.63;;;6.32;;
63046;SDS011;62025;39.238;9.126;2022-11-14T04:01:50;9.63;;;6.45;;
63046;SDS011;62025;39.238;9.126;2022-11-14T04:04:34;7.63;;;5.82;;
63046;SDS011;62025;39.238;9.126;2022-11-14T04:07:19;7.72;;;6.13;;
63046;SDS011;62025;39.238;9.126;2022-11-14T04:10:04;6.50;;;5.28;;
63046;SDS011;62025;39.238;9.126;2022-11-14T04:12:50;7.68;;;4.80;;
63046;SDS011;62025;39.238;9.126;2022-11-14T04:15:36;6.22;;;5.15;;
63046;SDS011;62025;39.238;9.126;2022-11-14T04:18:21;7.35;;;5.45;;
63046;SDS011;62025;39.238;9.126;2022-11-14T04:21:06;10.18;;;5.25;;
63046;SDS011;62025;39.238;9.126;2022-11-14T04:23:51;5.82;;;5.18;;
63046;SDS011;62025;39.238;9.126;2022-11-14T04:26:36;6.82;;;5.25;;
63046;SDS011;62025;39.238;9.126;2022-11-14T04:29:20;5.20;;;4.07;;
63046;SDS011;62025;39.238;9.126;2022-11-14T04:32:05;5.95;;;4.35;;
63046;SDS011;62025;39.238;9.126;2022-11-14T04:34:49;6.30;;;3.80;;
63046;SDS011;62025;39.238;9.126;2022-11-14T04:37:34;6.78;;;4.00;;
63046;SDS011;62025;39.238;9.126;2022-11-14T04:40:21;9.23;;;4.38;;
63046;SDS011;62025;39.238;9.126;2022-11-14T04:43:05;6.28;;;4.13;;
63046;SDS011;62025;39.238;9.126;2022-11-14T04:45:50;5.05;;;3.70;;
63046;SDS011;62025;39.238;9.126;2022-11-14T04:48:35;5.60;;;3.92;;
63046;SDS011;62025;39.238;9.126;2022-11-14T04:51:19;5.25;;;3.40;;
63046;SDS011;62025;39.238;9.126;2022-11-14T04:54:04;5.10;;;3.70;;
63046;SDS011;62025;39.238;9.126;2022-11-14T04:56:49;6.03;;;3.67;;
63046;SDS011;62025;39.238;9.126;2022-11-14T04:59:33;7.10;;;4.10;;
63046;SDS011;62025;39.238;9.126;2022-11-14T05:02:18;5.88;;;4.20;;
63046;SDS011;62025;39.238;9.126;2022-11-14T05:05:02;6.90;;;3.95;;
63046;SDS011;62025;39.238;9.126;2022-11-14T05:07:47;6.03;;;4.43;;
63046;SDS011;62025;39.238;9.126;2022-11-14T05:10:32;7.70;;;4.88;;
63046;SDS011;62025;39.238;9.126;2022-11-14T05:13:16;9.10;;;5.25;;
63046;SDS011;62025;39.238;9.126;2022-11-14T05:16:01;8.30;;;5.10;;
63046;SDS011;62025;39.238;9.126;2022-11-14T05:18:45;9.05;;;5.65;;
63046;SDS011;62025;39.238;9.126;2022-11-14T05:21:30;5.50;;;4.70;;
63046;SDS011;62025;39.238;9.126;2022-11-14T05:24:14;8.18;;;5.05;;
63046;SDS011;62025;39.238;9.126;2022-11-14T05:26:59;7.22;;;4.78;;
63046;SDS011;62025;39.238;9.126;2022-11-14T05:29:44;8.07;;;4.40;;
63046;SDS011;62025;39.238;9.126;2022-11-14T05:32:28;5.60;;;4.75;;
63046;SDS011;62025;39.238;9.126;2022-11-14T05:35:13;5.20;;;4.05;;
63046;SDS011;62025;39.238;9.126;2022-11-14T05:37:59;4.88;;;4.03;;
63046;SDS011;62025;39.238;9.126;2022-11-14T05:40:44;5.63;;;3.72;;
63046;SDS011;62025;39.238;9.126;2022-11-14T05:43:29;8.57;;;3.50;;
63046;SDS011;62025;39.238;9.126;2022-11-14T05:46:14;4.90;;;3.40;;
63046;SDS011;62025;39.238;9.126;2022-11-14T05:48:59;5.28;;;3.10;;
63046;SDS011;62025;39.238;9.126;2022-11-14T05:51:44;7.13;;;3.47;;
63046;SDS011;62025;39.238;9.126;2022-11-14T05:54:28;9.23;;;3.38;;
63046;SDS011;62025;39.238;9.126;2022-11-14T05:57:13;5.40;;;3.47;;
63046;SDS011;62025;39.238;9.126;2022-11-14T05:59:58;7.85;;;3.58;;
63046;SDS011;62025;39.238;9.126;2022-11-14T06:02:42;5.80;;;3.63;;
63046;SDS011;62025;39.238;9.126;2022-11-14T06:05:29;4.93;;;3.55;;
63046;SDS011;62025;39.238;9.126;2022-11-14T06:08:14;5.60;;;3.38;;
63046;SDS011;62025;39.238;9.126;2022-11-14T06:11:03;5.13;;;3.63;;
63046;SDS011;62025;39.238;9.126;2022-11-14T06:13:56;8.17;;;3.80;;
63046;SDS011;62025;39.238;9.126;2022-11-14T06:16:41;9.20;;;4.25;;
63046;SDS011;62025;39.238;9.126;2022-11-14T06:19:26;5.93;;;3.80;;
63046;SDS011;62025;39.238;9.126;2022-11-14T06:22:10;7.43;;;4.03;;
63046;SDS011;62025;39.238;9.126;2022-11-14T06:24:55;7.93;;;3.80;;
63046;SDS011;62025;39.238;9.126;2022-11-14T06:27:40;7.82;;;4.03;;
63046;SDS011;62025;39.238;9.126;2022-11-14T06:30:24;17.75;;;4.85;;
63046;SDS011;62025;39.238;9.126;2022-11-14T06:33:09;4.43;;;3.47;;
63046;SDS011;62025;39.238;9.126;2022-11-14T06:35:57;6.22;;;3.45;;
63046;SDS011;62025;39.238;9.126;2022-11-14T06:38:43;5.97;;;3.40;;
63046;SDS011;62025;39.238;9.126;2022-11-14T06:41:28;8.23;;;3.65;;
63046;SDS011;62025;39.238;9.126;2022-11-14T06:44:12;7.05;;;3.60;;
63046;SDS011;62025;39.238;9.126;2022-11-14T06:46:57;7.53;;;3.60;;
63046;SDS011;62025;39.238;9.126;2022-11-14T06:49:42;5.40;;;3.97;;
63046;SDS011;62025;39.238;9.126;2022-11-14T06:52:27;7.25;;;4.10;;
63046;SDS011;62025;39.238;9.126;2022-11-14T06:55:11;7.28;;;4.50;;
63046;SDS011;62025;39.238;9.126;2022-11-14T06:57:56;6.20;;;4.45;;
63046;SDS011;62025;39.238;9.126;2022-11-14T07:00:41;5.72;;;4.55;;
63046;SDS011;62025;39.238;9.126;2022-11-14T07:03:25;7.57;;;4.57;;
63046;SDS011;62025;39.238;9.126;2022-11-14T07:06:12;6.72;;;3.80;;
63046;SDS011;62025;39.238;9.126;2022-11-14T07:08:59;8.13;;;4.85;;
63046;SDS011;62025;39.238;9.126;2022-11-14T07:11:44;8.32;;;4.28;;
63046;SDS011;62025;39.238;9.126;2022-11-14T07:14:30;6.72;;;4.20;;
63046;SDS011;62025;39.238;9.126;2022-11-14T07:17:15;5.57;;;3.97;;
63046;SDS011;62025;39.238;9.126;2022-11-14T07:19:59;6.72;;;3.97;;
63046;SDS011;62025;39.238;9.126;2022-11-14T07:22:44;8.20;;;4.18;;
63046;SDS011;62025;39.238;9.126;2022-11-14T07:25:29;12.82;;;4.53;;
63046;SDS011;62025;39.238;9.126;2022-11-14T07:28:14;10.07;;;6.50;;
63046;SDS011;62025;39.238;9.126;2022-11-14T07:31:01;9.48;;;5.28;;
63046;SDS011;62025;39.238;9.126;2022-11-14T07:33:51;9.23;;;4.70;;
63046;SDS011;62025;39.238;9.126;2022-11-14T07:36:35;8.50;;;4.20;;
63046;SDS011;62025;39.238;9.126;2022-11-14T07:39:20;6.68;;;3.55;;
63046;SDS011;62025;39.238;9.126;2022-11-14T07:42:04;8.73;;;4.80;;
63046;SDS011;62025;39.238;9.126;2022-11-14T07:44:49;7.40;;;4.00;;
63046;SDS011;62025;39.238;9.126;2022-11-14T07:47:34;7.93;;;4.72;;
63046;SDS011;62025;39.238;9.126;2022-11-14T07:50:18;8.10;;;4.30;;
63046;SDS011;62025;39.238;9.126;2022-11-14T07:53:03;6.53;;;4.03;;
63046;SDS011;62025;39.238;9.126;2022-11-14T07:55:47;7.00;;;4.20;;
63046;SDS011;62025;39.238;9.126;2022-11-14T07:58:34;7.15;;;4.47;;
63046;SDS011;62025;39.238;9.126;2022-11-14T08:01:19;13.68;;;4.35;;
63046;SDS011;62025;39.238;9.126;2022-11-14T08:04:04;7.40;;;4.35;;
63046;SDS011;62025;39.238;9.126;2022-11-14T08:06:48;8.07;;;5.50;;
63046;SDS011;62025;39.238;9.126;2022-11-14T08:09:33;11.55;;;5.40;;
63046;SDS011;62025;39.238;9.126;2022-11-14T08:12:18;9.40;;;5.90;;
63046;SDS011;62025;39.238;9.126;2022-11-14T08:15:02;8.93;;;5.95;;
63046;SDS011;62025;39.238;9.126;2022-11-14T08:17:52;11.43;;;5.15;;
63046;SDS011;62025;39.238;9.126;2022-11-14T08:20:40;8.98;;;4.38;;
63046;SDS011;62025;39.238;9.126;2022-11-14T08:23:26;7.38;;;4.35;;
63046;SDS011;62025;39.238;9.126;2022-11-14T08:26:10;8.55;;;4.45;;
63046;SDS011;62025;39.238;9.126;2022-11-14T08:28:55;8.50;;;4.40;;
63046;SDS011;62025;39.238;9.126;2022-11-14T08:31:40;8.10;;;4.82;;
63046;SDS011;62025;39.238;9.126;2022-11-14T08:34:24;11.57;;;4.60;;
63046;SDS011;62025;39.238;9.126;2022-11-14T08:37:09;9.38;;;4.57;;
63046;SDS011;62025;39.238;9.126;2022-11-14T08:39:53;10.90;;;4.88;;
63046;SDS011;62025;39.238;9.126;2022-11-14T08:42:38;8.20;;;4.40;;
63046;SDS011;62025;39.238;9.126;2022-11-14T08:45:23;8.43;;;4.40;;
63046;SDS011;62025;39.238;9.126;2022-11-14T08:48:07;8.45;;;4.90;;
63046;SDS011;62025;39.238;9.126;2022-11-14T08:50:53;9.48;;;5.45;;
63046;SDS011;62025;39.238;9.126;2022-11-14T08:53:37;10.13;;;4.78;;
63046;SDS011;62025;39.238;9.126;2022-11-14T08:56:22;11.75;;;4.40;;
63046;SDS011;62025;39.238;9.126;2022-11-14T08:59:06;11.20;;;5.03;;
63046;SDS011;62025;39.238;9.126;2022-11-14T09:01:51;12.70;;;4.95;;
63046;SDS011;62025;39.238;9.126;2022-11-14T09:04:36;10.57;;;5.25;;
63046;SDS011;62025;39.238;9.126;2022-11-14T09:07:20;8.70;;;4.88;;
63046;SDS011;62025;39.238;9.126;2022-11-14T09:10:05;10.38;;;5.70;;
63046;SDS011;62025;39.238;9.126;2022-11-14T09:12:55;9.80;;;5.82;;
63046;SDS011;62025;39.238;9.126;2022-11-14T09:15:44;8.35;;;5.22;;
63046;SDS011;62025;39.238;9.126;2022-11-14T09:18:29;11.23;;;5.50;;
63046;SDS011;62025;39.238;9.126;2022-11-14T09:21:14;8.20;;;5.60;;
63046;SDS011;62025;39.238;9.126;2022-11-14T09:23:58;11.85;;;5.78;;
63046;SDS011;62025;39.238;9.126;2022-11-14T09:26:43;8.93;;;5.47;;
63046;SDS011;62025;39.238;9.126;2022-11-14T09:29:27;8.32;;;5.35;;
63046;SDS011;62025;39.238;9.126;2022-11-14T09:32:12;6.80;;;5.07;;
63046;SDS011;62025;39.238;9.126;2022-11-14T09:34:57;9.35;;;5.60;;
63046;SDS011;62025;39.238;9.126;2022-11-14T09:37:41;9.32;;;4.95;;
63046;SDS011;62025;39.238;9.126;2022-11-14T09:40:26;11.35;;;5.20;;
63046;SDS011;62025;39.238;9.126;2022-11-14T09:46:26;9.75;;;4.78;;
63046;SDS011;62025;39.238;9.126;2022-11-14T09:55:20;9.80;;;4.28;;
63046;SDS011;62025;39.238;9.126;2022-11-14T09:58:18;8.32;;;4.30;;
63046;SDS011;62025;39.238;9.126;2022-11-14T10:01:05;14.20;;;3.80;;
63046;SDS011;62025;39.238;9.126;2022-11-14T10:06:59;7.53;;;3.90;;
63046;SDS011;62025;39.238;9.126;2022-11-14T10:10:02;5.10;;;2.50;;
63046;SDS011;62025;39.238;9.126;2022-11-14T10:33:30;3.35;;;1.60;;
63046;SDS011;62025;39.238;9.126;2022-11-14T10:42:23;3.40;;;1.60;;
63046;SDS011;62025;39.238;9.126;2022-11-14T10:45:22;3.80;;;1.52;;
63046;SDS011;62025;39.238;9.126;2022-11-14T10:48:24;3.70;;;1.90;;
63046;SDS011;62025;39.238;9.126;2022-11-14T10:57:32;2.28;;;1.80;;
63046;SDS011;62025;39.238;9.126;2022-11-14T11:00:18;3.35;;;1.73;;
63046;SDS011;62025;39.238;9.126;2022-11-14T11:03:07;2.63;;;1.70;;
63046;SDS011;62025;39.238;9.126;2022-11-14T11:05:52;3.45;;;1.60;;
63046;SDS011;62025;39.238;9.126;2022-11-14T11:08:43;3.75;;;1.80;;
63046;SDS011;62025;39.238;9.126;2022-11-14T11:11:54;2.15;;;1.70;;
63046;SDS011;62025;39.238;9.126;2022-11-14T11:14:44;3.13;;;1.70;;
63046;SDS011;62025;39.238;9.126;2022-11-14T11:17:31;3.35;;;1.80;;
63046;SDS011;62025;39.238;9.126;2022-11-14T11:23:21;6.35;;;1.60;;
63046;SDS011;62025;39.238;9.126;2022-11-14T11:26:23;2.40;;;1.38;;
63046;SDS011;62025;39.238;9.126;2022-11-14T11:29:14;3.90;;;1.55;;
63046;SDS011;62025;39.238;9.126;2022-11-14T11:32:01;4.57;;;1.67;;
63046;SDS011;62025;39.238;9.126;2022-11-14T11:34:45;3.42;;;1.60;;
63046;SDS011;62025;39.238;9.126;2022-11-14T11:37:31;3.80;;;1.65;;
63046;SDS011;62025;39.238;9.126;2022-11-14T11:40:31;4.90;;;1.75;;
63046;SDS011;62025;39.238;9.126;2022-11-14T11:43:25;2.42;;;1.80;;
63046;SDS011;62025;39.238;9.126;2022-11-14T11:46:47;3.83;;;1.90;;
63046;SDS011;62025;39.238;9.126;2022-11-14T11:49:42;2.03;;;1.60;;
63046;SDS011;62025;39.238;9.126;2022-11-14T11:52:34;6.60;;;1.85;;
63046;SDS011;62025;39.238;9.126;2022-11-14T11:55:28;3.47;;;1.90;;
63046;SDS011;62025;39.238;9.126;2022-11-14T11:58:28;3.60;;;1.38;;
63046;SDS011;62025;39.238;9.126;2022-11-14T12:01:30;4.35;;;1.50;;
63046;SDS011;62025;39.238;9.126;2022-11-14T12:04:14;3.63;;;1.65;;
63046;SDS011;62025;39.238;9.126;2022-11-14T12:07:04;3.45;;;1.40;;
63046;SDS011;62025;39.238;9.126;2022-11-14T12:10:14;3.28;;;1.40;;
63046;SDS011;62025;39.238;9.126;2022-11-14T12:32:05;3.42;;;1.38;;
63046;SDS011;62025;39.238;9.126;2022-11-14T12:34:55;2.65;;;1.30;;
63046;SDS011;62025;39.238;9.126;2022-11-14T12:37:45;2.95;;;1.58;;
63046;SDS011;62025;39.238;9.126;2022-11-14T12:43:27;3.22;;;1.40;;
63046;SDS011;62025;39.238;9.126;2022-11-14T12:46:19;1.50;;;1.40;;
63046;SDS011;62025;39.238;9.126;2022-11-14T12:49:20;2.05;;;1.27;;
63046;SDS011;62025;39.238;9.126;2022-11-14T13:05:03;2.53;;;1.73;;
63046;SDS011;62025;39.238;9.126;2022-11-14T13:14:53;1.85;;;1.40;;
63046;SDS011;62025;39.238;9.126;2022-11-14T13:18:01;1.80;;;1.48;;
63046;SDS011;62025;39.238;9.126;2022-11-14T13:21:31;5.28;;;1.27;;
63046;SDS011;62025;39.238;9.126;2022-11-14T13:27:47;2.10;;;1.38;;
63046;SDS011;62025;39.238;9.126;2022-11-14T13:37:32;1.33;;;1.23;;
63046;SDS011;62025;39.238;9.126;2022-11-14T13:44:02;3.78;;;1.45;;
63046;SDS011;62025;39.238;9.126;2022-11-14T13:50:30;2.47;;;1.50;;
63046;SDS011;62025;39.238;9.126;2022-11-14T13:53:20;2.90;;;1.20;;
63046;SDS011;62025;39.238;9.126;2022-11-14T14:15:19;1.65;;;1.30;;
63046;SDS011;62025;39.238;9.126;2022-11-14T14:31:12;2.28;;;1.67;;
63046;SDS011;62025;39.238;9.126;2022-11-14T14:33:59;1.83;;;1.25;;
63046;SDS011;62025;39.238;9.126;2022-11-14T14:36:51;1.92;;;1.48;;
63046;SDS011;62025;39.238;9.126;2022-11-14T14:39:38;2.05;;;1.58;;
63046;SDS011;62025;39.238;9.126;2022-11-14T14:42:23;3.05;;;1.20;;
63046;SDS011;62025;39.238;9.126;2022-11-14T14:45:14;5.68;;;1.30;;
63046;SDS011;62025;39.238;9.126;2022-11-14T14:48:11;2.17;;;1.40;;
63046;SDS011;62025;39.238;9.126;2022-11-14T14:50:59;3.33;;;1.35;;
63046;SDS011;62025;39.238;9.126;2022-11-14T14:53:50;1.70;;;1.20;;
63046;SDS011;62025;39.238;9.126;2022-11-14T14:56:36;2.63;;;1.13;;
63046;SDS011;62025;39.238;9.126;2022-11-14T14:59:21;1.60;;;1.15;;
63046;SDS011;62025;39.238;9.126;2022-11-14T15:02:12;1.92;;;1.33;;
63046;SDS011;62025;39.238;9.126;2022-11-14T15:05:00;1.65;;;1.50;;
63046;SDS011;62025;39.238;9.126;2022-11-14T15:07:46;1.88;;;1.33;;
63046;SDS011;62025;39.238;9.126;2022-11-14T15:10:32;2.65;;;1.20;;
63046;SDS011;62025;39.238;9.126;2022-11-14T15:13:17;1.55;;;1.33;;
63046;SDS011;62025;39.238;9.126;2022-11-14T15:16:03;3.33;;;1.60;;
63046;SDS011;62025;39.238;9.126;2022-11-14T15:18:50;1.88;;;1.42;;
63046;SDS011;62025;39.238;9.126;2022-11-14T15:21:37;4.90;;;1.40;;
63046;SDS011;62025;39.238;9.126;2022-11-14T15:24:22;1.58;;;1.30;;
63046;SDS011;62025;39.238;9.126;2022-11-14T15:27:13;2.35;;;1.15;;
63046;SDS011;62025;39.238;9.126;2022-11-14T15:30:02;1.30;;;1.20;;
63046;SDS011;62025;39.238;9.126;2022-11-14T15:32:52;3.20;;;1.30;;
63046;SDS011;62025;39.238;9.126;2022-11-14T15:35:40;5.30;;;1.45;;
63046;SDS011;62025;39.238;9.126;2022-11-14T15:38:25;3.83;;;1.58;;
63046;SDS011;62025;39.238;9.126;2022-11-14T15:41:14;1.40;;;1.30;;
63046;SDS011;62025;39.238;9.126;2022-11-14T15:52:57;2.97;;;1.77;;
63046;SDS011;62025;39.238;9.126;2022-11-14T15:56:13;2.40;;;1.60;;
63046;SDS011;62025;39.238;9.126;2022-11-14T15:58:57;2.45;;;1.38;;
63046;SDS011;62025;39.238;9.126;2022-11-14T16:01:43;2.50;;;1.50;;
63046;SDS011;62025;39.238;9.126;2022-11-14T16:04:31;2.30;;;1.38;;
63046;SDS011;62025;39.238;9.126;2022-11-14T16:07:17;2.00;;;1.42;;
63046;SDS011;62025;39.238;9.126;2022-11-14T16:10:04;3.90;;;1.40;;
63046;SDS011;62025;39.238;9.126;2022-11-14T16:12:57;2.05;;;1.40;;
63046;SDS011;62025;39.238;9.126;2022-11-14T16:15:41;3.13;;;1.58;;
63046;SDS011;62025;39.238;9.126;2022-11-14T16:18:26;4.80;;;1.77;;
63046;SDS011;62025;39.238;9.126;2022-11-14T16:21:12;1.95;;;1.60;;
63046;SDS011;62025;39.238;9.126;2022-11-14T16:24:01;2.47;;;1.60;;
63046;SDS011;62025;39.238;9.126;2022-11-14T16:26:45;3.13;;;1.30;;
63046;SDS011;62025;39.238;9.126;2022-11-14T16:29:31;5.72;;;1.65;;
63046;SDS011;62025;39.238;9.126;2022-11-14T16:32:15;2.97;;;1.55;;
63046;SDS011;62025;39.238;9.126;2022-11-14T16:35:00;2.58;;;1.50;;
63046;SDS011;62025;39.238;9.126;2022-11-14T16:37:45;3.90;;;1.60;;
63046;SDS011;62025;39.238;9.126;2022-11-14T16:40:30;2.78;;;1.50;;
63046;SDS011;62025;39.238;9.126;2022-11-14T16:43:15;4.82;;;1.98;;
63046;SDS011;62025;39.238;9.126;2022-11-14T16:46:06;2.40;;;1.67;;
63046;SDS011;62025;39.238;9.126;2022-11-14T16:48:53;2.85;;;1.52;;
63046;SDS011;62025;39.238;9.126;2022-11-14T16:51:38;4.18;;;1.55;;
63046;SDS011;62025;39.238;9.126;2022-11-14T16:54:25;2.70;;;1.58;;
63046;SDS011;62025;39.238;9.126;2022-11-14T16:57:10;3.25;;;1.30;;
63046;SDS011;62025;39.238;9.126;2022-11-14T16:59:55;4.68;;;1.83;;
63046;SDS011;62025;39.238;9.126;2022-11-14T17:02:41;1.95;;;1.40;;
63046;SDS011;62025;39.238;9.126;2022-11-14T17:05:26;3.05;;;1.67;;
63046;SDS011;62025;39.238;9.126;2022-11-14T17:08:11;5.68;;;1.65;;
63046;SDS011;62025;39.238;9.126;2022-11-14T17:10:56;3.15;;;1.42;;
63046;SDS011;62025;39.238;9.126;2022-11-14T17:13:40;2.65;;;1.58;;
63046;SDS011;62025;39.238;9.126;2022-11-14T17:16:25;4.43;;;1.70;;
63046;SDS011;62025;39.238;9.126;2022-11-14T17:19:09;3.25;;;1.63;;
63046;SDS011;62025;39.238;9.126;2022-11-14T17:21:54;2.47;;;1.35;;
63046;SDS011;62025;39.238;9.126;2022-11-14T17:24:39;3.30;;;1.80;;
63046;SDS011;62025;39.238;9.126;2022-11-14T17:27:24;2.03;;;1.58;;
63046;SDS011;62025;39.238;9.126;2022-11-14T17:30:12;3.63;;;2.33;;
63046;SDS011;62025;39.238;9.126;2022-11-14T17:32:56;2.90;;;1.75;;
63046;SDS011;62025;39.238;9.126;2022-11-14T17:35:41;2.28;;;1.60;;
63046;SDS011;62025;39.238;9.126;2022-11-14T17:38:25;3.30;;;1.52;;
63046;SDS011;62025;39.238;9.126;2022-11-14T17:41:10;2.05;;;1.73;;
63046;SDS011;62025;39.238;9.126;2022-11-14T17:43:55;3.08;;;1.63;;
63046;SDS011;62025;39.238;9.126;2022-11-14T17:46:41;3.72;;;1.60;;
63046;SDS011;62025;39.238;9.126;2022-11-14T17:49:26;2.47;;;1.73;;
63046;SDS011;62025;39.238;9.126;2022-11-14T17:52:11;3.35;;;1.60;;
63046;SDS011;62025;39.238;9.126;2022-11-14T17:54:55;3.45;;;1.50;;
63046;SDS011;62025;39.238;9.126;2022-11-14T17:57:40;3.13;;;1.77;;
63046;SDS011;62025;39.238;9.126;2022-11-14T18:00:24;3.15;;;1.80;;
63046;SDS011;62025;39.238;9.126;2022-11-14T18:03:09;2.65;;;1.48;;
63046;SDS011;62025;39.238;9.126;2022-11-14T18:06:03;2.13;;;1.50;;
63046;SDS011;62025;39.238;9.126;2022-11-14T18:08:59;3.15;;;1.58;;
63046;SDS011;62025;39.238;9.126;2022-11-14T18:14:32;3.58;;;1.70;;
63046;SDS011;62025;39.238;9.126;2022-11-14T18:17:16;2.55;;;1.75;;
63046;SDS011;62025;39.238;9.126;2022-11-14T18:20:01;4.00;;;1.88;;
63046;SDS011;62025;39.238;9.126;2022-11-14T18:22:46;5.15;;;1.80;;
63046;SDS011;62025;39.238;9.126;2022-11-14T18:25:31;2.60;;;2.00;;
63046;SDS011;62025;39.238;9.126;2022-11-14T18:28:15;4.65;;;1.90;;
63046;SDS011;62025;39.238;9.126;2022-11-14T18:31:00;2.88;;;1.80;;
63046;SDS011;62025;39.238;9.126;2022-11-14T18:33:46;3.55;;;1.90;;
63046;SDS011;62025;39.238;9.126;2022-11-14T18:36:31;6.28;;;3.20;;
63046;SDS011;62025;39.238;9.126;2022-11-14T18:39:15;6.43;;;4.38;;
63046;SDS011;62025;39.238;9.126;2022-11-14T18:42:00;10.43;;;4.30;;
63046;SDS011;62025;39.238;9.126;2022-11-14T18:44:45;7.53;;;4.03;;
63046;SDS011;62025;39.238;9.126;2022-11-14T18:47:29;5.22;;;3.53;;
63046;SDS011;62025;39.238;9.126;2022-11-14T18:50:14;6.85;;;3.53;;
63046;SDS011;62025;39.238;9.126;2022-11-14T18:52:59;5.85;;;3.65;;
63046;SDS011;62025;39.238;9.126;2022-11-14T18:55:43;6.05;;;4.05;;
63046;SDS011;62025;39.238;9.126;2022-11-14T18:58:28;9.65;;;3.97;;
63046;SDS011;62025;39.238;9.126;2022-11-14T19:04:09;6.22;;;3.72;;
63046;SDS011;62025;39.238;9.126;2022-11-14T19:06:54;6.20;;;3.88;;
63046;SDS011;62025;39.238;9.126;2022-11-14T19:09:39;6.60;;;4.10;;
63046;SDS011;62025;39.238;9.126;2022-11-14T19:12:23;8.75;;;5.22;;
63046;SDS011;62025;39.238;9.126;2022-11-14T19:15:08;7.18;;;4.30;;
63046;SDS011;62025;39.238;9.126;2022-11-14T19:17:54;5.80;;;4.05;;
63046;SDS011;62025;39.238;9.126;2022-11-14T19:20:38;11.80;;;4.72;;
63046;SDS011;62025;39.238;9.126;2022-11-14T19:23:23;9.85;;;4.47;;
63046;SDS011;62025;39.238;9.126;2022-11-14T19:26:08;6.38;;;4.10;;